首页
METAR-TAF:

METAR-TAF

机场 :

維泰博, 意大利

纬度: 42-26N, 经度: 012-03E, 海拔: 300米

当前天气观测

该预报发布于6小时和35分钟前的18:55 UTC
温度 18°C
湿度 56%
气压 1018 hPa
能见度10公里或以上
散云层高于2600英尺

METAR: LIRV 161855Z /////KT 9999 SCT026 18/09 Q1018

时间: 03:30 (01:30 UTC)

预报

该预报发布于11小时和30分钟前的14:00 UTC
预报有效从16日的 15点(UTC)到 16日的 24点(UTC)
风速7节,风向北转东北
能见度10公里或以上
散云层高于2000英尺

TAF: LIRV 161400Z 1615/1624 03007KT 9999 SCT020

超过4000个机场的气象观测和天气预报(METAR&TAF报告)。

可查询的气象台以黄色和红色小点在地图上表示。

将鼠标移到小点上方,可查看气象台名称。

然后点击查看天气观测和预报。

如需切换地图:点击带黑十字的绿色按钮放大地图;点击带横线的绿色按钮缩小地图;或者点击绿色箭头查看邻近地区的地图。


METAR-TAF: